sensor_id;sensor_type;location;lat;lon;timestamp;temperature;humidity
67249;SHT31;54162;54.300;18.592;2022-09-03T00:02:43;10.62;87.71
67249;SHT31;54162;54.300;18.592;2022-09-03T00:07:43;10.80;87.53
67249;SHT31;54162;54.300;18.592;2022-09-03T00:10:16;10.81;87.37
67249;SHT31;54162;54.300;18.592;2022-09-03T00:12:44;11.01;86.79
67249;SHT31;54162;54.300;18.592;2022-09-03T00:15:19;10.94;87.39
67249;SHT31;54162;54.300;18.592;2022-09-03T00:18:03;10.84;87.84
67249;SHT31;54162;54.300;18.592;2022-09-03T00:20:31;10.80;88.22
67249;SHT31;54162;54.300;18.592;2022-09-03T00:22:59;10.70;88.84
67249;SHT31;54162;54.300;18.592;2022-09-03T00:25:48;10.63;89.23
67249;SHT31;54162;54.300;18.592;2022-09-03T00:28:26;10.66;89.32
67249;SHT31;54162;54.300;18.592;2022-09-03T00:34:01;10.80;89.11
67249;SHT31;54162;54.300;18.592;2022-09-03T00:36:36;10.85;88.87
67249;SHT31;54162;54.300;18.592;2022-09-03T00:39:09;10.98;88.19
67249;SHT31;54162;54.300;18.592;2022-09-03T00:41:35;10.98;88.24
67249;SHT31;54162;54.300;18.592;2022-09-03T00:47:07;11.00;88.26
67249;SHT31;54162;54.300;18.592;2022-09-03T01:00:26;10.96;88.83
67249;SHT31;54162;54.300;18.592;2022-09-03T01:03:10;11.12;88.33
67249;SHT31;54162;54.300;18.592;2022-09-03T01:06:05;11.18;87.83
67249;SHT31;54162;54.300;18.592;2022-09-03T01:11:32;11.35;86.96
67249;SHT31;54162;54.300;18.592;2022-09-03T01:30:14;12.38;84.73
67249;SHT31;54162;54.300;18.592;2022-09-03T01:32:53;12.38;84.60
67249;SHT31;54162;54.300;18.592;2022-09-03T01:38:23;12.23;85.71
67249;SHT31;54162;54.300;18.592;2022-09-03T01:44:21;11.89;86.67
67249;SHT31;54162;54.300;18.592;2022-09-03T01:46:58;11.86;86.70
67249;SHT31;54162;54.300;18.592;2022-09-03T01:49:33;11.91;86.55
67249;SHT31;54162;54.300;18.592;2022-09-03T01:52:13;11.80;87.53
67249;SHT31;54162;54.300;18.592;2022-09-03T01:55:12;11.69;88.48
67249;SHT31;54162;54.300;18.592;2022-09-03T01:57:53;11.63;89.46
67249;SHT31;54162;54.300;18.592;2022-09-03T02:00:21;11.59;89.84
67249;SHT31;54162;54.300;18.592;2022-09-03T02:02:49;11.54;89.52
67249;SHT31;54162;54.300;18.592;2022-09-03T02:05:28;11.49;89.76
67249;SHT31;54162;54.300;18.592;2022-09-03T02:10:39;11.77;88.49
67249;SHT31;54162;54.300;18.592;2022-09-03T02:13:11;11.83;87.78
67249;SHT31;54162;54.300;18.592;2022-09-03T02:15:41;11.87;87.34
67249;SHT31;54162;54.300;18.592;2022-09-03T02:18:14;12.00;85.84
67249;SHT31;54162;54.300;18.592;2022-09-03T02:20:41;11.82;87.13
67249;SHT31;54162;54.300;18.592;2022-09-03T02:23:07;11.86;87.22
67249;SHT31;54162;54.300;18.592;2022-09-03T02:25:36;11.75;87.93
67249;SHT31;54162;54.300;18.592;2022-09-03T02:28:05;11.61;88.68
67249;SHT31;54162;54.300;18.592;2022-09-03T02:30:31;11.56;88.69
67249;SHT31;54162;54.300;18.592;2022-09-03T02:32:58;11.51;89.12
67249;SHT31;54162;54.300;18.592;2022-09-03T02:35:23;11.42;89.33
67249;SHT31;54162;54.300;18.592;2022-09-03T02:37:49;11.51;89.10
67249;SHT31;54162;54.300;18.592;2022-09-03T02:40:15;11.48;89.57
67249;SHT31;54162;54.300;18.592;2022-09-03T02:42:42;11.38;89.59
67249;SHT31;54162;54.300;18.592;2022-09-03T02:45:27;11.38;90.10
67249;SHT31;54162;54.300;18.592;2022-09-03T02:47:58;11.35;90.54
67249;SHT31;54162;54.300;18.592;2022-09-03T02:50:24;11.32;90.26
67249;SHT31;54162;54.300;18.592;2022-09-03T02:52:50;11.29;90.62
67249;SHT31;54162;54.300;18.592;2022-09-03T02:55:17;11.24;91.55
67249;SHT31;54162;54.300;18.592;2022-09-03T02:57:43;11.19;91.77
67249;SHT31;54162;54.300;18.592;2022-09-03T03:00:09;11.15;91.94
67249;SHT31;54162;54.300;18.592;2022-09-03T03:02:35;11.14;92.12
67249;SHT31;54162;54.300;18.592;2022-09-03T03:05:00;11.11;91.95
67249;SHT31;54162;54.300;18.592;2022-09-03T03:07:29;11.12;92.21
67249;SHT31;54162;54.300;18.592;2022-09-03T03:09:56;11.12;91.36
67249;SHT31;54162;54.300;18.592;2022-09-03T03:12:21;11.29;90.28
67249;SHT31;54162;54.300;18.592;2022-09-03T03:14:47;11.39;89.85
67249;SHT31;54162;54.300;18.592;2022-09-03T03:17:12;11.54;89.40
67249;SHT31;54162;54.300;18.592;2022-09-03T03:19:38;11.56;88.91
67249;SHT31;54162;54.300;18.592;2022-09-03T03:22:03;11.66;88.13
67249;SHT31;54162;54.300;18.592;2022-09-03T03:24:29;11.76;87.31
67249;SHT31;54162;54.300;18.592;2022-09-03T03:26:55;11.61;87.82
67249;SHT31;54162;54.300;18.592;2022-09-03T03:29:23;11.67;87.40
67249;SHT31;54162;54.300;18.592;2022-09-03T03:31:50;11.67;87.50
67249;SHT31;54162;54.300;18.592;2022-09-03T03:34:16;11.72;86.95
67249;SHT31;54162;54.300;18.592;2022-09-03T03:36:41;11.67;86.78
67249;SHT31;54162;54.300;18.592;2022-09-03T03:39:07;11.69;86.57
67249;SHT31;54162;54.300;18.592;2022-09-03T03:41:34;11.80;85.72
67249;SHT31;54162;54.300;18.592;2022-09-03T03:44:05;11.77;85.25
67249;SHT31;54162;54.300;18.592;2022-09-03T03:46:36;11.73;85.52
67249;SHT31;54162;54.300;18.592;2022-09-03T03:49:03;11.54;86.37
67249;SHT31;54162;54.300;18.592;2022-09-03T03:51:31;11.49;86.37
67249;SHT31;54162;54.300;18.592;2022-09-03T03:53:57;11.42;85.76
67249;SHT31;54162;54.300;18.592;2022-09-03T03:56:24;11.42;85.14
67249;SHT31;54162;54.300;18.592;2022-09-03T03:58:51;11.40;85.87
67249;SHT31;54162;54.300;18.592;2022-09-03T04:01:20;11.51;85.49
67249;SHT31;54162;54.300;18.592;2022-09-03T04:03:46;11.59;83.82
67249;SHT31;54162;54.300;18.592;2022-09-03T04:06:13;11.67;84.00
67249;SHT31;54162;54.300;18.592;2022-09-03T04:08:41;11.45;84.07
67249;SHT31;54162;54.300;18.592;2022-09-03T04:11:10;11.36;84.28
67249;SHT31;54162;54.300;18.592;2022-09-03T04:13:41;11.22;84.85
67249;SHT31;54162;54.300;18.592;2022-09-03T04:16:26;11.34;84.41
67249;SHT31;54162;54.300;18.592;2022-09-03T04:18:53;11.39;84.41
67249;SHT31;54162;54.300;18.592;2022-09-03T04:21:22;11.31;84.72
67249;SHT31;54162;54.300;18.592;2022-09-03T04:23:48;11.18;85.61
67249;SHT31;54162;54.300;18.592;2022-09-03T04:26:17;11.08;85.90
67249;SHT31;54162;54.300;18.592;2022-09-03T04:28:42;10.98;86.13
67249;SHT31;54162;54.300;18.592;2022-09-03T04:31:11;10.93;86.80
67249;SHT31;54162;54.300;18.592;2022-09-03T04:33:38;10.85;87.07
67249;SHT31;54162;54.300;18.592;2022-09-03T04:36:11;10.84;87.38
67249;SHT31;54162;54.300;18.592;2022-09-03T04:38:41;10.83;87.80
67249;SHT31;54162;54.300;18.592;2022-09-03T04:41:09;10.83;88.21
67249;SHT31;54162;54.300;18.592;2022-09-03T04:43:35;10.91;87.87
67249;SHT31;54162;54.300;18.592;2022-09-03T04:46:03;10.97;87.11
67249;SHT31;54162;54.300;18.592;2022-09-03T04:48:30;11.01;86.85
67249;SHT31;54162;54.300;18.592;2022-09-03T04:51:07;10.93;87.82
67249;SHT31;54162;54.300;18.592;2022-09-03T04:53:35;11.04;85.17
67249;SHT31;54162;54.300;18.592;2022-09-03T04:56:00;11.04;86.54
67249;SHT31;54162;54.300;18.592;2022-09-03T04:58:26;11.08;87.05
67249;SHT31;54162;54.300;18.592;2022-09-03T05:00:52;11.15;86.99
67249;SHT31;54162;54.300;18.592;2022-09-03T05:03:17;11.18;87.13
67249;SHT31;54162;54.300;18.592;2022-09-03T05:05:54;11.31;86.76
67249;SHT31;54162;54.300;18.592;2022-09-03T05:08:20;11.55;86.17
67249;SHT31;54162;54.300;18.592;2022-09-03T05:10:46;11.65;86.07
67249;SHT31;54162;54.300;18.592;2022-09-03T05:13:12;11.77;85.64
67249;SHT31;54162;54.300;18.592;2022-09-03T05:15:37;11.89;86.20
67249;SHT31;54162;54.300;18.592;2022-09-03T05:18:03;11.97;86.43
67249;SHT31;54162;54.300;18.592;2022-09-03T05:20:30;12.10;85.19
67249;SHT31;54162;54.300;18.592;2022-09-03T05:23:01;12.25;82.84
67249;SHT31;54162;54.300;18.592;2022-09-03T05:25:28;12.44;82.59
67249;SHT31;54162;54.300;18.592;2022-09-03T05:27:56;12.64;82.17
67249;SHT31;54162;54.300;18.592;2022-09-03T05:30:22;14.27;78.35
67249;SHT31;54162;54.300;18.592;2022-09-03T05:32:48;15.60;73.72
67249;SHT31;54162;54.300;18.592;2022-09-03T05:35:14;15.59;71.31
67249;SHT31;54162;54.300;18.592;2022-09-03T05:37:40;17.41;67.54
67249;SHT31;54162;54.300;18.592;2022-09-03T05:40:06;17.93;65.60
67249;SHT31;54162;54.300;18.592;2022-09-03T05:42:33;17.93;64.00
67249;SHT31;54162;54.300;18.592;2022-09-03T05:45:07;17.82;63.83
67249;SHT31;54162;54.300;18.592;2022-09-03T05:47:36;17.66;61.85
67249;SHT31;54162;54.300;18.592;2022-09-03T05:50:02;18.12;61.54
67249;SHT31;54162;54.300;18.592;2022-09-03T05:52:28;18.30;60.99
67249;SHT31;54162;54.300;18.592;2022-09-03T05:54:53;19.09;60.05
67249;SHT31;54162;54.300;18.592;2022-09-03T05:57:19;18.78;58.27
67249;SHT31;54162;54.300;18.592;2022-09-03T05:59:44;17.17;62.60
67249;SHT31;54162;54.300;18.592;2022-09-03T06:02:10;19.54;59.00
67249;SHT31;54162;54.300;18.592;2022-09-03T06:04:35;19.77;57.65
67249;SHT31;54162;54.300;18.592;2022-09-03T06:07:01;19.03;58.10
67249;SHT31;54162;54.300;18.592;2022-09-03T06:09:26;19.19;56.61
67249;SHT31;54162;54.300;18.592;2022-09-03T06:11:52;19.43;57.61
67249;SHT31;54162;54.300;18.592;2022-09-03T06:14:18;19.99;55.97
67249;SHT31;54162;54.300;18.592;2022-09-03T06:16:46;20.44;55.40
67249;SHT31;54162;54.300;18.592;2022-09-03T06:19:14;20.21;55.58
67249;SHT31;54162;54.300;18.592;2022-09-03T06:21:42;19.74;55.37
67249;SHT31;54162;54.300;18.592;2022-09-03T06:24:13;20.54;54.41
67249;SHT31;54162;54.300;18.592;2022-09-03T06:26:39;19.57;58.10
67249;SHT31;54162;54.300;18.592;2022-09-03T06:29:05;19.13;56.92
67249;SHT31;54162;54.300;18.592;2022-09-03T06:31:30;19.20;56.44
67249;SHT31;54162;54.300;18.592;2022-09-03T06:33:56;18.92;58.14
67249;SHT31;54162;54.300;18.592;2022-09-03T06:36:23;18.41;58.93
67249;SHT31;54162;54.300;18.592;2022-09-03T06:39:03;18.18;59.50
67249;SHT31;54162;54.300;18.592;2022-09-03T06:41:30;18.47;58.96
67249;SHT31;54162;54.300;18.592;2022-09-03T06:44:01;17.52;61.52
67249;SHT31;54162;54.300;18.592;2022-09-03T06:46:28;17.07;62.77
67249;SHT31;54162;54.300;18.592;2022-09-03T06:48:53;17.36;62.41
67249;SHT31;54162;54.300;18.592;2022-09-03T06:51:22;17.02;62.39
67249;SHT31;54162;54.300;18.592;2022-09-03T06:53:50;16.55;65.38
67249;SHT31;54162;54.300;18.592;2022-09-03T06:56:25;15.93;64.62
67249;SHT31;54162;54.300;18.592;2022-09-03T06:58:53;17.07;63.83
67249;SHT31;54162;54.300;18.592;2022-09-03T07:01:24;16.66;64.50
67249;SHT31;54162;54.300;18.592;2022-09-03T07:03:54;18.73;60.18
67249;SHT31;54162;54.300;18.592;2022-09-03T07:06:21;19.74;55.95
67249;SHT31;54162;54.300;18.592;2022-09-03T07:08:47;18.44;60.12
67249;SHT31;54162;54.300;18.592;2022-09-03T07:11:15;19.50;57.34
67249;SHT31;54162;54.300;18.592;2022-09-03T07:13:45;20.88;54.83
67249;SHT31;54162;54.300;18.592;2022-09-03T07:16:16;21.85;53.37
67249;SHT31;54162;54.300;18.592;2022-09-03T07:18:43;20.32;54.29
67249;SHT31;54162;54.300;18.592;2022-09-03T07:21:11;21.55;52.27
67249;SHT31;54162;54.300;18.592;2022-09-03T07:23:37;20.43;51.95
67249;SHT31;54162;54.300;18.592;2022-09-03T07:26:05;21.89;50.85
67249;SHT31;54162;54.300;18.592;2022-09-03T07:28:34;21.65;50.38
67249;SHT31;54162;54.300;18.592;2022-09-03T07:31:14;21.41;52.32
67249;SHT31;54162;54.300;18.592;2022-09-03T07:33:43;22.04;50.96
67249;SHT31;54162;54.300;18.592;2022-09-03T07:36:11;22.93;49.77
67249;SHT31;54162;54.300;18.592;2022-09-03T07:38:38;22.66;49.74
67249;SHT31;54162;54.300;18.592;2022-09-03T07:41:06;22.35;51.31
67249;SHT31;54162;54.300;18.592;2022-09-03T07:43:38;22.85;49.81
67249;SHT31;54162;54.300;18.592;2022-09-03T07:46:14;23.44;48.34
67249;SHT31;54162;54.300;18.592;2022-09-03T07:48:46;22.47;50.53
67249;SHT31;54162;54.300;18.592;2022-09-03T07:51:13;22.66;50.45
67249;SHT31;54162;54.300;18.592;2022-09-03T07:53:39;21.72;52.70
67249;SHT31;54162;54.300;18.592;2022-09-03T07:56:06;21.77;51.51
67249;SHT31;54162;54.300;18.592;2022-09-03T07:58:33;21.28;52.14
67249;SHT31;54162;54.300;18.592;2022-09-03T08:01:05;22.75;49.25
67249;SHT31;54162;54.300;18.592;2022-09-03T08:03:35;21.50;52.70
67249;SHT31;54162;54.300;18.592;2022-09-03T08:06:02;20.60;52.28
67249;SHT31;54162;54.300;18.592;2022-09-03T08:08:29;19.89;54.76
67249;SHT31;54162;54.300;18.592;2022-09-03T08:11:02;21.10;54.48
67249;SHT31;54162;54.300;18.592;2022-09-03T08:13:27;20.14;55.59
67249;SHT31;54162;54.300;18.592;2022-09-03T08:15:56;20.63;55.06
67249;SHT31;54162;54.300;18.592;2022-09-03T08:18:26;19.22;56.64
67249;SHT31;54162;54.300;18.592;2022-09-03T08:20:59;18.95;56.74
67249;SHT31;54162;54.300;18.592;2022-09-03T08:23:28;19.73;54.22
67249;SHT31;54162;54.300;18.592;2022-09-03T08:25:58;18.69;55.11
67249;SHT31;54162;54.300;18.592;2022-09-03T08:28:24;19.37;56.03
67249;SHT31;54162;54.300;18.592;2022-09-03T08:30:50;19.95;54.88
67249;SHT31;54162;54.300;18.592;2022-09-03T08:33:15;22.51;50.03
67249;SHT31;54162;54.300;18.592;2022-09-03T08:35:41;22.10;48.47
67249;SHT31;54162;54.300;18.592;2022-09-03T08:38:06;22.55;49.35
67249;SHT31;54162;54.300;18.592;2022-09-03T08:40:36;22.43;47.00
67249;SHT31;54162;54.300;18.592;2022-09-03T08:43:15;22.76;47.00
67249;SHT31;54162;54.300;18.592;2022-09-03T08:45:42;21.98;48.20
67249;SHT31;54162;54.300;18.592;2022-09-03T08:48:17;20.97;50.38
67249;SHT31;54162;54.300;18.592;2022-09-03T08:50:48;22.37;48.15
67249;SHT31;54162;54.300;18.592;2022-09-03T08:53:45;23.10;46.38
67249;SHT31;54162;54.300;18.592;2022-09-03T08:56:14;23.34;44.85
67249;SHT31;54162;54.300;18.592;2022-09-03T08:58:44;21.94;46.90
67249;SHT31;54162;54.300;18.592;2022-09-03T09:09:45;20.35;52.44
67249;SHT31;54162;54.300;18.592;2022-09-03T09:15:11;21.11;49.71
67249;SHT31;54162;54.300;18.592;2022-09-03T09:20:53;22.34;46.71
67249;SHT31;54162;54.300;18.592;2022-09-03T09:23:38;22.30;48.47
67249;SHT31;54162;54.300;18.592;2022-09-03T09:26:09;22.47;47.66
67249;SHT31;54162;54.300;18.592;2022-09-03T09:28:37;23.30;47.01
67249;SHT31;54162;54.300;18.592;2022-09-03T09:31:05;22.16;46.36
67249;SHT31;54162;54.300;18.592;2022-09-03T09:33:37;21.85;48.94
67249;SHT31;54162;54.300;18.592;2022-09-03T09:36:07;21.72;48.31
67249;SHT31;54162;54.300;18.592;2022-09-03T09:38:35;21.50;47.69
67249;SHT31;54162;54.300;18.592;2022-09-03T09:43:37;21.50;49.06
67249;SHT31;54162;54.300;18.592;2022-09-03T09:46:25;22.18;47.36
67249;SHT31;54162;54.300;18.592;2022-09-03T09:48:54;22.24;46.96
67249;SHT31;54162;54.300;18.592;2022-09-03T09:51:22;21.14;50.79
67249;SHT31;54162;54.300;18.592;2022-09-03T09:54:25;21.15;51.38
67249;SHT31;54162;54.300;18.592;2022-09-03T09:57:02;21.48;50.88
67249;SHT31;54162;54.300;18.592;2022-09-03T09:59:28;22.24;49.65
67249;SHT31;54162;54.300;18.592;2022-09-03T10:02:19;21.45;50.77
67249;SHT31;54162;54.300;18.592;2022-09-03T10:04:48;21.46;50.78
67249;SHT31;54162;54.300;18.592;2022-09-03T10:10:00;21.87;51.92
67249;SHT31;54162;54.300;18.592;2022-09-03T10:12:35;20.12;51.74
67249;SHT31;54162;54.300;18.592;2022-09-03T10:18:01;19.63;55.19
67249;SHT31;54162;54.300;18.592;2022-09-03T10:20:35;18.52;57.37
67249;SHT31;54162;54.300;18.592;2022-09-03T10:28:16;19.19;56.54
67249;SHT31;54162;54.300;18.592;2022-09-03T10:42:26;18.61;57.32
67249;SHT31;54162;54.300;18.592;2022-09-03T10:45:01;17.49;59.66
67249;SHT31;54162;54.300;18.592;2022-09-03T10:50:22;16.94;60.35
67249;SHT31;54162;54.300;18.592;2022-09-03T10:53:06;17.30;59.06
67249;SHT31;54162;54.300;18.592;2022-09-03T10:55:49;18.18;60.19
67249;SHT31;54162;54.300;18.592;2022-09-03T11:01:19;18.48;57.09
67249;SHT31;54162;54.300;18.592;2022-09-03T11:07:02;18.24;57.15
67249;SHT31;54162;54.300;18.592;2022-09-03T11:12:09;20.01;53.55
67249;SHT31;54162;54.300;18.592;2022-09-03T11:14:43;18.51;56.62
67249;SHT31;54162;54.300;18.592;2022-09-03T11:17:25;16.88;59.54
67249;SHT31;54162;54.300;18.592;2022-09-03T11:20:17;17.02;59.97
67249;SHT31;54162;54.300;18.592;2022-09-03T11:22:43;17.20;59.46
67249;SHT31;54162;54.300;18.592;2022-09-03T11:25:13;18.18;59.64
67249;SHT31;54162;54.300;18.592;2022-09-03T11:27:52;17.86;59.07
67249;SHT31;54162;54.300;18.592;2022-09-03T11:33:19;17.18;61.14
67249;SHT31;54162;54.300;18.592;2022-09-03T11:35:45;17.72;59.69
67249;SHT31;54162;54.300;18.592;2022-09-03T11:48:51;18.09;60.79
67249;SHT31;54162;54.300;18.592;2022-09-03T11:53:56;17.06;61.58
67249;SHT31;54162;54.300;18.592;2022-09-03T11:56:22;16.99;62.66
67249;SHT31;54162;54.300;18.592;2022-09-03T11:59:15;16.99;61.05
67249;SHT31;54162;54.300;18.592;2022-09-03T12:02:12;16.88;60.54
67249;SHT31;54162;54.300;18.592;2022-09-03T12:07:52;17.20;61.91
67249;SHT31;54162;54.300;18.592;2022-09-03T12:13:32;18.65;58.04
67249;SHT31;54162;54.300;18.592;2022-09-03T12:18:45;18.21;58.02
67249;SHT31;54162;54.300;18.592;2022-09-03T12:21:15;17.04;57.69
67249;SHT31;54162;54.300;18.592;2022-09-03T12:23:46;16.76;60.15
67249;SHT31;54162;54.300;18.592;2022-09-03T12:26:21;17.04;60.56
67249;SHT31;54162;54.300;18.592;2022-09-03T12:28:56;16.53;59.87
67249;SHT31;54162;54.300;18.592;2022-09-03T12:31:25;16.51;60.23
67249;SHT31;54162;54.300;18.592;2022-09-03T12:33:57;16.62;60.39
67249;SHT31;54162;54.300;18.592;2022-09-03T12:36:39;16.88;58.67
67249;SHT31;54162;54.300;18.592;2022-09-03T12:42:08;17.59;57.86
67249;SHT31;54162;54.300;18.592;2022-09-03T12:47:03;16.65;57.16
67249;SHT31;54162;54.300;18.592;2022-09-03T12:49:36;16.88;56.80
67249;SHT31;54162;54.300;18.592;2022-09-03T12:52:08;16.75;58.77
67249;SHT31;54162;54.300;18.592;2022-09-03T12:54:56;17.08;58.79
67249;SHT31;54162;54.300;18.592;2022-09-03T12:57:29;16.51;54.98
67249;SHT31;54162;54.300;18.592;2022-09-03T12:59:59;17.20;53.86
67249;SHT31;54162;54.300;18.592;2022-09-03T13:02:33;17.62;53.25
67249;SHT31;54162;54.300;18.592;2022-09-03T13:05:02;17.89;55.69
67249;SHT31;54162;54.300;18.592;2022-09-03T13:07:32;17.66;55.98
67249;SHT31;54162;54.300;18.592;2022-09-03T13:10:04;17.36;53.83
67249;SHT31;54162;54.300;18.592;2022-09-03T13:12:43;17.64;54.95
67249;SHT31;54162;54.300;18.592;2022-09-03T13:15:25;16.97;55.65
67249;SHT31;54162;54.300;18.592;2022-09-03T13:28:54;15.89;54.06
67249;SHT31;54162;54.300;18.592;2022-09-03T13:31:36;16.31;55.38
67249;SHT31;54162;54.300;18.592;2022-09-03T13:36:50;16.14;55.74
67249;SHT31;54162;54.300;18.592;2022-09-03T13:42:02;16.32;58.46
67249;SHT31;54162;54.300;18.592;2022-09-03T13:45:00;16.10;59.61
67249;SHT31;54162;54.300;18.592;2022-09-03T13:47:36;15.89;62.07
67249;SHT31;54162;54.300;18.592;2022-09-03T13:50:17;15.90;62.16
67249;SHT31;54162;54.300;18.592;2022-09-03T13:53:22;16.26;63.17
67249;SHT31;54162;54.300;18.592;2022-09-03T13:56:12;16.91;61.69
67249;SHT31;54162;54.300;18.592;2022-09-03T13:59:05;16.36;64.30
67249;SHT31;54162;54.300;18.592;2022-09-03T14:04:00;16.17;64.82
67249;SHT31;54162;54.300;18.592;2022-09-03T14:06:47;15.81;65.26
67249;SHT31;54162;54.300;18.592;2022-09-03T14:22:52;16.29;67.89
67249;SHT31;54162;54.300;18.592;2022-09-03T14:25:23;16.35;68.05
67249;SHT31;54162;54.300;18.592;2022-09-03T14:27:49;16.05;67.94
67249;SHT31;54162;54.300;18.592;2022-09-03T14:35:30;14.81;68.44
67249;SHT31;63247;54.300;18.592;2022-09-03T15:07:51;15.38;61.75
67249;SHT31;63247;54.300;18.592;2022-09-03T15:10:37;15.57;63.64
67249;SHT31;63247;54.300;18.592;2022-09-03T15:13:15;15.59;63.41
67249;SHT31;63247;54.300;18.592;2022-09-03T15:18:28;15.52;63.49
67249;SHT31;63247;54.300;18.592;2022-09-03T15:37:53;15.32;66.90
67249;SHT31;63247;54.300;18.592;2022-09-03T15:43:20;15.40;66.83
67249;SHT31;63247;54.300;18.592;2022-09-03T15:48:43;15.53;66.27
67249;SHT31;63247;54.300;18.592;2022-09-03T15:51:21;15.35;66.36
67249;SHT31;63247;54.300;18.592;2022-09-03T15:53:59;15.28;67.10
67249;SHT31;63247;54.300;18.592;2022-09-03T15:56:33;15.32;67.31
67249;SHT31;63247;54.300;18.592;2022-09-03T15:59:28;15.18;67.79
67249;SHT31;63247;54.300;18.592;2022-09-03T16:02:19;15.14;68.31
67249;SHT31;63247;54.300;18.592;2022-09-03T16:10:40;15.09;68.69
67249;SHT31;63247;54.300;18.592;2022-09-03T16:16:02;15.01;69.03
67249;SHT31;63247;54.300;18.592;2022-09-03T16:18:41;15.01;68.93
67249;SHT31;63247;54.300;18.592;2022-09-03T16:21:45;14.94;68.77
67249;SHT31;63247;54.300;18.592;2022-09-03T16:24:25;14.87;69.33
67249;SHT31;63247;54.300;18.592;2022-09-03T16:27:14;14.73;70.00
67249;SHT31;63247;54.300;18.592;2022-09-03T16:29:40;14.65;70.22
67249;SHT31;63247;54.300;18.592;2022-09-03T16:35:08;14.65;70.08
67249;SHT31;63247;54.300;18.592;2022-09-03T16:40:45;14.60;70.11
67249;SHT31;63247;54.300;18.592;2022-09-03T16:43:32;14.63;69.97
67249;SHT31;63247;54.300;18.592;2022-09-03T16:54:45;14.40;70.87
67249;SHT31;63247;54.300;18.592;2022-09-03T16:57:38;14.32;71.36
67249;SHT31;63247;54.300;18.592;2022-09-03T17:24:51;13.50;73.57
67249;SHT31;63247;54.300;18.592;2022-09-03T17:30:10;13.57;73.26
67249;SHT31;63247;54.300;18.592;2022-09-03T17:49:48;13.07;74.55
67249;SHT31;63247;54.300;18.592;2022-09-03T17:52:38;12.99;74.83
67249;SHT31;63247;54.300;18.592;2022-09-03T17:55:16;13.00;74.70
67249;SHT31;63247;54.300;18.592;2022-09-03T17:57:50;13.00;74.58
67249;SHT31;63247;54.300;18.592;2022-09-03T18:00:24;12.91;74.95
67249;SHT31;63247;54.300;18.592;2022-09-03T18:08:39;12.79;75.19
67249;SHT31;63247;54.300;18.592;2022-09-03T18:11:19;12.62;75.64
67249;SHT31;63247;54.300;18.592;2022-09-03T18:16:46;12.89;74.60
67249;SHT31;63247;54.300;18.592;2022-09-03T18:20:06;12.72;74.96
67249;SHT31;63247;54.300;18.592;2022-09-03T18:22:30;12.78;74.87
67249;SHT31;63247;54.300;18.592;2022-09-03T18:25:16;12.72;75.31
67249;SHT31;63247;54.300;18.592;2022-09-03T18:28:04;12.65;75.41
67249;SHT31;63247;54.300;18.592;2022-09-03T18:30:49;12.59;75.31
67249;SHT31;63247;54.300;18.592;2022-09-03T18:33:33;12.45;75.76
67249;SHT31;63247;54.300;18.592;2022-09-03T18:36:17;12.61;75.13
67249;SHT31;63247;54.300;18.592;2022-09-03T18:54:25;12.38;76.00
67249;SHT31;63247;54.300;18.592;2022-09-03T18:57:34;12.34;76.02
67249;SHT31;63247;54.300;18.592;2022-09-03T19:00:19;12.31;75.90
67249;SHT31;63247;54.300;18.592;2022-09-03T19:06:26;12.34;75.97
67249;SHT31;63247;54.300;18.592;2022-09-03T19:09:36;12.27;76.25
67249;SHT31;63247;54.300;18.592;2022-09-03T19:15:35;12.16;76.44
67249;SHT31;63247;54.300;18.592;2022-09-03T19:24:14;12.08;76.70
67249;SHT31;63247;54.300;18.592;2022-09-03T19:27:16;12.06;76.70
67249;SHT31;63247;54.300;18.592;2022-09-03T19:35:53;12.03;76.57
67249;SHT31;63247;54.300;18.592;2022-09-03T19:42:01;12.00;76.87
67249;SHT31;63247;54.300;18.592;2022-09-03T19:44:59;11.96;77.29
67249;SHT31;63247;54.300;18.592;2022-09-03T19:51:14;12.45;75.25
67249;SHT31;63247;54.300;18.592;2022-09-03T19:54:01;12.79;74.14
67249;SHT31;63247;54.300;18.592;2022-09-03T19:56:47;12.69;74.51
67249;SHT31;63247;54.300;18.592;2022-09-03T19:59:43;12.69;74.72
67249;SHT31;63247;54.300;18.592;2022-09-03T20:02:28;12.51;75.29
67249;SHT31;63247;54.300;18.592;2022-09-03T20:05:21;12.40;75.65
67249;SHT31;63247;54.300;18.592;2022-09-03T20:08:06;12.24;76.02
67249;SHT31;63247;54.300;18.592;2022-09-03T20:10:55;12.30;76.10
67249;SHT31;63247;54.300;18.592;2022-09-03T20:13:21;12.10;76.44
67249;SHT31;63247;54.300;18.592;2022-09-03T20:16:07;11.97;76.99
67249;SHT31;63247;54.300;18.592;2022-09-03T20:18:46;12.03;77.03
67249;SHT31;63247;54.300;18.592;2022-09-03T20:23:56;12.37;76.29
67249;SHT31;63247;54.300;18.592;2022-09-03T20:26:55;12.20;76.63
67249;SHT31;63247;54.300;18.592;2022-09-03T20:29:51;12.10;76.84
67249;SHT31;63247;54.300;18.592;2022-09-03T20:44:07;12.24;77.85
67249;SHT31;63247;54.300;18.592;2022-09-03T20:49:28;12.20;78.59
67249;SHT31;63247;54.300;18.592;2022-09-03T21:00:21;12.13;79.29
67249;SHT31;63247;54.300;18.592;2022-09-03T21:14:33;11.90;79.94
67249;SHT31;63247;54.300;18.592;2022-09-03T21:23:06;11.96;80.01
67249;SHT31;63247;54.300;18.592;2022-09-03T21:25:39;11.80;80.18
67249;SHT31;63247;54.300;18.592;2022-09-03T21:28:26;11.89;80.08
67249;SHT31;63247;54.300;18.592;2022-09-03T21:31:09;11.91;80.04
67249;SHT31;63247;54.300;18.592;2022-09-03T21:33:38;11.90;79.99
67249;SHT31;63247;54.300;18.592;2022-09-03T21:36:26;11.70;80.32
67249;SHT31;63247;54.300;18.592;2022-09-03T21:39:19;11.76;80.37
67249;SHT31;63247;54.300;18.592;2022-09-03T21:41:54;11.65;80.56
67249;SHT31;63247;54.300;18.592;2022-09-03T21:44:44;11.73;80.29
67249;SHT31;63247;54.300;18.592;2022-09-03T21:47:15;11.82;80.03
67249;SHT31;63247;54.300;18.592;2022-09-03T21:50:02;12.00;79.39
67249;SHT31;63247;54.300;18.592;2022-09-03T21:55:21;11.97;79.50
67249;SHT31;63247;54.300;18.592;2022-09-03T21:58:14;11.75;79.83
67249;SHT31;63247;54.300;18.592;2022-09-03T22:00:42;11.86;79.45
67249;SHT31;63247;54.300;18.592;2022-09-03T22:03:09;11.83;79.50
67249;SHT31;63247;54.300;18.592;2022-09-03T22:05:53;11.76;79.54
67249;SHT31;63247;54.300;18.592;2022-09-03T22:08:31;11.87;79.27
67249;SHT31;63247;54.300;18.592;2022-09-03T22:11:07;11.87;79.14
67249;SHT31;63247;54.300;18.592;2022-09-03T22:13:44;11.91;78.78
67249;SHT31;63247;54.300;18.592;2022-09-03T22:16:26;12.01;78.76
67249;SHT31;63247;54.300;18.592;2022-09-03T22:18:54;11.94;78.78
67249;SHT31;63247;54.300;18.592;2022-09-03T22:21:30;11.98;78.78